sensor_id;sensor_type;location;lat;lon;timestamp;pressure;altitude;pressure_sealevel;temperature;humidity
64343;BME280;50675;53.530;-6.312;2023-03-22T00:31:46;98026.34;;;12.49;77.71
64343;BME280;50675;53.530;-6.312;2023-03-22T00:34:33;98013.88;;;12.56;77.77
64343;BME280;50675;53.530;-6.312;2023-03-22T00:39:57;98017.59;;;12.43;77.66
64343;BME280;50675;53.530;-6.312;2023-03-22T00:43:01;98050.84;;;12.52;77.56
64343;BME280;50675;53.530;-6.312;2023-03-22T00:45:47;98053.91;;;12.42;77.71
64343;BME280;50675;53.530;-6.312;2023-03-22T00:48:33;98082.28;;;12.45;77.69
64343;BME280;50675;53.530;-6.312;2023-03-22T00:51:37;98056.66;;;12.16;77.69
64343;BME280;50675;53.530;-6.312;2023-03-22T00:54:36;98076.09;;;12.18;77.80
64343;BME280;50675;53.530;-6.312;2023-03-22T00:57:42;98077.41;;;11.95;77.64
64343;BME280;50675;53.530;-6.312;2023-03-22T01:00:28;98109.88;;;11.78;77.61
64343;BME280;50675;53.530;-6.312;2023-03-22T01:03:14;98108.19;;;11.43;77.46
64343;BME280;50675;53.530;-6.312;2023-03-22T01:06:00;98100.22;;;11.29;77.47
64343;BME280;50675;53.530;-6.312;2023-03-22T01:08:46;98105.13;;;11.18;77.40
64343;BME280;50675;53.530;-6.312;2023-03-22T01:11:44;98108.25;;;11.03;77.51
64343;BME280;50675;53.530;-6.312;2023-03-22T01:14:30;98120.88;;;11.16;77.27
64343;BME280;50675;53.530;-6.312;2023-03-22T01:17:16;98119.19;;;10.98;77.18
64343;BME280;50675;53.530;-6.312;2023-03-22T01:20:02;98135.75;;;11.05;77.54
64343;BME280;50675;53.530;-6.312;2023-03-22T01:22:49;98146.31;;;10.84;77.15
64343;BME280;50675;53.530;-6.312;2023-03-22T01:25:35;98165.13;;;10.98;77.26
64343;BME280;50675;53.530;-6.312;2023-03-22T01:28:21;98143.75;;;10.79;77.15
64343;BME280;50675;53.530;-6.312;2023-03-22T01:31:10;98154.25;;;10.81;76.77
64343;BME280;50675;53.530;-6.312;2023-03-22T01:33:56;98172.91;;;11.00;76.95
64343;BME280;50675;53.530;-6.312;2023-03-22T01:36:42;98162.34;;;10.81;77.17
64343;BME280;50675;53.530;-6.312;2023-03-22T01:39:28;98165.44;;;10.66;77.12
64343;BME280;50675;53.530;-6.312;2023-03-22T01:42:14;98192.44;;;10.66;77.05
64343;BME280;50675;53.530;-6.312;2023-03-22T01:45:31;98191.84;;;10.69;76.96
64343;BME280;50675;53.530;-6.312;2023-03-22T02:00:16;98226.22;;;10.19;76.76
64343;BME280;50675;53.530;-6.312;2023-03-22T02:17:57;98273.91;;;9.69;76.22
64343;BME280;50675;53.530;-6.312;2023-03-22T02:31:14;98291.19;;;9.54;75.94
64343;BME280;50675;53.530;-6.312;2023-03-22T02:46:26;98334.84;;;9.37;75.86
64343;BME280;50675;53.530;-6.312;2023-03-22T02:49:23;98324.81;;;9.10;75.76
64343;BME280;50675;53.530;-6.312;2023-03-22T03:01:13;98368.09;;;9.46;75.76
64343;BME280;50675;53.530;-6.312;2023-03-22T03:04:03;98364.50;;;9.37;75.72
64343;BME280;50675;53.530;-6.312;2023-03-22T03:06:52;98364.97;;;9.26;75.92
64343;BME280;50675;53.530;-6.312;2023-03-22T03:09:41;98369.75;;;9.29;75.64
64343;BME280;50675;53.530;-6.312;2023-03-22T03:12:30;98357.31;;;9.00;75.58
64343;BME280;50675;53.530;-6.312;2023-03-22T03:15:25;98383.34;;;9.05;75.57
64343;BME280;50675;53.530;-6.312;2023-03-22T03:29:05;98399.00;;;9.03;75.25
64343;BME280;50675;53.530;-6.312;2023-03-22T03:32:03;98417.28;;;8.87;75.21
64343;BME280;50675;53.530;-6.312;2023-03-22T03:35:00;98411.03;;;8.92;75.21
64343;BME280;50675;53.530;-6.312;2023-03-22T03:38:14;98412.38;;;8.70;75.16
64343;BME280;50675;53.530;-6.312;2023-03-22T03:41:13;98411.91;;;8.68;75.19
64343;BME280;50675;53.530;-6.312;2023-03-22T03:44:06;98388.81;;;8.62;75.35
64343;BME280;50675;53.530;-6.312;2023-03-22T03:46:56;98419.59;;;8.75;75.14
64343;BME280;50675;53.530;-6.312;2023-03-22T03:49:54;98405.91;;;8.53;75.15
64343;BME280;50675;53.530;-6.312;2023-03-22T03:52:46;98416.66;;;8.53;75.02
64343;BME280;50675;53.530;-6.312;2023-03-22T03:55:54;98458.00;;;8.62;75.02
64343;BME280;50675;53.530;-6.312;2023-03-22T03:58:55;98449.25;;;8.51;74.90
64343;BME280;50675;53.530;-6.312;2023-03-22T04:01:42;98456.22;;;8.52;75.04
64343;BME280;50675;53.530;-6.312;2023-03-22T04:04:34;98460.59;;;8.48;74.99
64343;BME280;50675;53.530;-6.312;2023-03-22T04:07:26;98456.06;;;8.44;75.09
64343;BME280;50675;53.530;-6.312;2023-03-22T04:10:15;98474.50;;;8.55;74.80
64343;BME280;50675;53.530;-6.312;2023-03-22T04:16:43;98469.78;;;8.42;74.71
64343;BME280;50675;53.530;-6.312;2023-03-22T04:19:29;98497.13;;;8.54;74.60
64343;BME280;50675;53.530;-6.312;2023-03-22T04:22:21;98493.47;;;8.45;74.57
64343;BME280;50675;53.530;-6.312;2023-03-22T04:25:12;98499.59;;;8.22;74.79
64343;BME280;50675;53.530;-6.312;2023-03-22T04:28:24;98517.38;;;8.18;74.62
64343;BME280;50675;53.530;-6.312;2023-03-22T04:31:44;98523.09;;;8.40;74.74
64343;BME280;50675;53.530;-6.312;2023-03-22T04:34:30;98491.63;;;8.12;74.84
64343;BME280;50675;53.530;-6.312;2023-03-22T04:37:26;98501.38;;;8.08;74.71
64343;BME280;50675;53.530;-6.312;2023-03-22T04:40:12;98497.88;;;8.07;74.58
64343;BME280;50675;53.530;-6.312;2023-03-22T04:43:35;98534.94;;;8.39;74.75
64343;BME280;50675;53.530;-6.312;2023-03-22T04:46:26;98530.38;;;8.40;74.39
64343;BME280;50675;53.530;-6.312;2023-03-22T04:49:25;98531.78;;;8.27;74.37
64343;BME280;50675;53.530;-6.312;2023-03-22T04:52:13;98531.56;;;8.23;74.34
64343;BME280;50675;53.530;-6.312;2023-03-22T04:55:08;98531.78;;;8.27;74.24
64343;BME280;50675;53.530;-6.312;2023-03-22T05:01:38;98554.09;;;8.32;74.08
64343;BME280;50675;53.530;-6.312;2023-03-22T05:04:25;98553.66;;;8.20;74.40
64343;BME280;50675;53.530;-6.312;2023-03-22T05:07:11;98563.13;;;8.13;74.11
64343;BME280;50675;53.530;-6.312;2023-03-22T05:10:07;98546.31;;;8.02;74.10
64343;BME280;50675;53.530;-6.312;2023-03-22T05:12:56;98555.69;;;8.05;74.12
64343;BME280;50675;53.530;-6.312;2023-03-22T05:15:42;98564.81;;;8.04;74.18
64343;BME280;50675;53.530;-6.312;2023-03-22T05:18:28;98561.94;;;7.95;74.12
64343;BME280;50675;53.530;-6.312;2023-03-22T06:27:28;98601.19;;;7.57;73.81
64343;BME280;50675;53.530;-6.312;2023-03-22T06:30:14;98566.72;;;7.74;73.76
64343;BME280;50675;53.530;-6.312;2023-03-22T06:33:00;98592.41;;;7.85;73.70
64343;BME280;50675;53.530;-6.312;2023-03-22T06:35:49;98588.50;;;7.68;73.38
64343;BME280;50675;53.530;-6.312;2023-03-22T06:38:35;98583.03;;;7.83;73.38
64343;BME280;50675;53.530;-6.312;2023-03-22T06:41:21;98574.94;;;7.88;73.87
64343;BME280;50675;53.530;-6.312;2023-03-22T06:44:11;98580.00;;;7.89;73.72
64343;BME280;50675;53.530;-6.312;2023-03-22T06:46:57;98573.31;;;7.87;73.19
64343;BME280;50675;53.530;-6.312;2023-03-22T06:49:48;98578.41;;;7.88;73.32
64343;BME280;50675;53.530;-6.312;2023-03-22T06:52:34;98575.28;;;8.10;73.63
64343;BME280;50675;53.530;-6.312;2023-03-22T06:55:22;98551.34;;;8.09;73.84
64343;BME280;50675;53.530;-6.312;2023-03-22T06:58:09;98549.19;;;8.11;73.84
64343;BME280;50675;53.530;-6.312;2023-03-22T07:00:55;98543.88;;;8.34;73.63
64343;BME280;50675;53.530;-6.312;2023-03-22T07:03:44;98539.28;;;8.35;73.69
64343;BME280;50675;53.530;-6.312;2023-03-22T07:06:30;98545.81;;;8.53;73.64
64343;BME280;50675;53.530;-6.312;2023-03-22T07:09:17;98552.81;;;8.77;73.57
64343;BME280;50675;53.530;-6.312;2023-03-22T07:12:09;98536.53;;;8.88;73.63
64343;BME280;50675;53.530;-6.312;2023-03-22T07:14:55;98559.63;;;9.12;73.41
64343;BME280;50675;53.530;-6.312;2023-03-22T07:17:41;98537.31;;;9.12;73.83
64343;BME280;50675;53.530;-6.312;2023-03-22T07:20:27;98535.50;;;9.26;73.89
64343;BME280;50675;53.530;-6.312;2023-03-22T07:23:19;98527.03;;;9.51;73.89
64343;BME280;50675;53.530;-6.312;2023-03-22T07:26:08;98531.06;;;9.35;73.70
64343;BME280;50675;53.530;-6.312;2023-03-22T07:29:00;98530.66;;;9.60;73.74
64343;BME280;50675;53.530;-6.312;2023-03-22T07:31:48;98530.13;;;9.77;73.61
64343;BME280;50675;53.530;-6.312;2023-03-22T07:34:34;98534.72;;;9.77;73.93
64343;BME280;50675;53.530;-6.312;2023-03-22T07:37:22;98545.41;;;9.82;73.79
64343;BME280;50675;53.530;-6.312;2023-03-22T07:40:09;98555.28;;;10.05;73.67
64343;BME280;50675;53.530;-6.312;2023-03-22T07:42:55;98522.00;;;9.96;73.73
64343;BME280;50675;53.530;-6.312;2023-03-22T07:45:49;98532.44;;;9.84;73.74
64343;BME280;50675;53.530;-6.312;2023-03-22T07:48:36;98523.78;;;9.87;73.64
64343;BME280;50675;53.530;-6.312;2023-03-22T07:51:23;98553.50;;;10.14;73.75
64343;BME280;50675;53.530;-6.312;2023-03-22T07:54:09;98526.78;;;9.99;73.57
64343;BME280;50675;53.530;-6.312;2023-03-22T07:56:55;98550.16;;;10.22;73.94
64343;BME280;50675;53.530;-6.312;2023-03-22T07:59:40;98553.34;;;10.24;73.93
64343;BME280;50675;53.530;-6.312;2023-03-22T08:02:28;98541.03;;;10.18;73.92
64343;BME280;50675;53.530;-6.312;2023-03-22T08:05:14;98544.56;;;10.19;73.87
64343;BME280;50675;53.530;-6.312;2023-03-22T08:08:00;98547.97;;;10.24;74.08
64343;BME280;50675;53.530;-6.312;2023-03-22T08:10:49;98531.56;;;10.21;73.90
64343;BME280;50675;53.530;-6.312;2023-03-22T08:13:36;98533.19;;;10.35;73.97
64343;BME280;50675;53.530;-6.312;2023-03-22T08:16:22;98539.97;;;10.33;74.11
64343;BME280;50675;53.530;-6.312;2023-03-22T08:19:08;98544.00;;;10.35;73.89
64343;BME280;50675;53.530;-6.312;2023-03-22T08:21:54;98556.59;;;10.40;74.14
64343;BME280;50675;53.530;-6.312;2023-03-22T08:24:40;98553.00;;;10.44;73.92
64343;BME280;50675;53.530;-6.312;2023-03-22T08:27:26;98544.38;;;10.42;73.83
64343;BME280;50675;53.530;-6.312;2023-03-22T08:30:12;98544.00;;;10.49;73.91
64343;BME280;50675;53.530;-6.312;2023-03-22T08:32:59;98545.81;;;10.53;74.11
64343;BME280;50675;53.530;-6.312;2023-03-22T08:35:44;98551.22;;;10.67;73.90
64343;BME280;50675;53.530;-6.312;2023-03-22T08:38:30;98541.59;;;10.75;74.06
64343;BME280;50675;53.530;-6.312;2023-03-22T08:41:16;98536.00;;;10.85;74.14
64343;BME280;50675;53.530;-6.312;2023-03-22T08:44:02;98539.78;;;10.84;73.99
64343;BME280;50675;53.530;-6.312;2023-03-22T08:46:48;98528.41;;;10.87;74.01
64343;BME280;50675;53.530;-6.312;2023-03-22T08:53:20;98530.78;;;11.16;74.14
64343;BME280;50675;53.530;-6.312;2023-03-22T08:56:07;98534.47;;;11.20;74.15
64343;BME280;50675;53.530;-6.312;2023-03-22T08:58:53;98524.13;;;11.22;74.12
64343;BME280;50675;53.530;-6.312;2023-03-22T09:01:38;98511.53;;;11.17;74.00
64343;BME280;50675;53.530;-6.312;2023-03-22T09:04:25;98526.31;;;11.33;74.27
64343;BME280;50675;53.530;-6.312;2023-03-22T09:07:11;98514.06;;;11.36;74.38
64343;BME280;50675;53.530;-6.312;2023-03-22T09:09:57;98510.09;;;11.33;74.30
64343;BME280;50675;53.530;-6.312;2023-03-22T09:12:43;98492.78;;;11.34;74.17
64343;BME280;50675;53.530;-6.312;2023-03-22T09:15:29;98517.88;;;11.49;74.48
64343;BME280;50675;53.530;-6.312;2023-03-22T09:18:18;98488.56;;;11.06;74.53
64343;BME280;50675;53.530;-6.312;2023-03-22T09:21:07;98492.38;;;11.27;74.21
64343;BME280;50675;53.530;-6.312;2023-03-22T09:23:53;98490.66;;;11.31;74.36
64343;BME280;50675;53.530;-6.312;2023-03-22T09:26:39;98489.03;;;11.44;74.41
64343;BME280;50675;53.530;-6.312;2023-03-22T09:29:25;98488.47;;;11.33;74.23
64343;BME280;50675;53.530;-6.312;2023-03-22T09:32:11;98491.16;;;11.11;73.96
64343;BME280;50675;53.530;-6.312;2023-03-22T09:34:56;98494.44;;;11.44;74.20
64343;BME280;50675;53.530;-6.312;2023-03-22T09:37:43;98466.09;;;11.19;74.16
64343;BME280;50675;53.530;-6.312;2023-03-22T09:40:32;98488.72;;;11.46;74.13
64343;BME280;50675;53.530;-6.312;2023-03-22T09:43:19;98496.47;;;11.38;74.16
64343;BME280;50675;53.530;-6.312;2023-03-22T09:46:12;98488.47;;;11.33;74.12
64343;BME280;50675;53.530;-6.312;2023-03-22T09:49:00;98509.88;;;11.44;74.04
64343;BME280;50675;53.530;-6.312;2023-03-22T09:51:49;98506.53;;;11.47;73.99
64343;BME280;50675;53.530;-6.312;2023-03-22T09:54:41;98490.56;;;11.36;74.15
64343;BME280;50675;53.530;-6.312;2023-03-22T09:57:37;98504.47;;;11.44;73.98
64343;BME280;50675;53.530;-6.312;2023-03-22T10:06:27;98505.06;;;11.76;74.21
64343;BME280;50675;53.530;-6.312;2023-03-22T10:12:32;98499.56;;;11.90;74.23
64343;BME280;50675;53.530;-6.312;2023-03-22T10:15:28;98489.97;;;11.84;74.20
64343;BME280;50675;53.530;-6.312;2023-03-22T10:18:21;98507.56;;;11.95;74.21
64343;BME280;50675;53.530;-6.312;2023-03-22T10:21:10;98508.56;;;12.08;74.24
64343;BME280;50675;53.530;-6.312;2023-03-22T10:24:01;98487.09;;;11.80;74.17
64343;BME280;50675;53.530;-6.312;2023-03-22T10:26:50;98489.91;;;11.98;74.17
64343;BME280;50675;53.530;-6.312;2023-03-22T10:29:41;98482.06;;;11.88;74.10
64343;BME280;50675;53.530;-6.312;2023-03-22T10:32:42;98484.44;;;11.89;73.83
64343;BME280;50675;53.530;-6.312;2023-03-22T10:35:30;98467.66;;;11.78;74.21
64343;BME280;50675;53.530;-6.312;2023-03-22T10:38:26;98480.19;;;11.97;73.82
64343;BME280;50675;53.530;-6.312;2023-03-22T10:41:15;98466.59;;;11.88;73.88
64343;BME280;50675;53.530;-6.312;2023-03-22T10:44:04;98476.81;;;11.91;73.77
64343;BME280;50675;53.530;-6.312;2023-03-22T10:46:51;98484.59;;;12.15;73.99
64343;BME280;50675;53.530;-6.312;2023-03-22T10:49:46;98487.47;;;12.18;73.80
64343;BME280;50675;53.530;-6.312;2023-03-22T10:52:55;98471.19;;;12.10;73.84
64343;BME280;50675;53.530;-6.312;2023-03-22T10:55:43;98470.13;;;12.19;73.81
64343;BME280;50675;53.530;-6.312;2023-03-22T10:58:32;98478.09;;;12.24;73.88
64343;BME280;50675;53.530;-6.312;2023-03-22T11:01:33;98466.34;;;12.29;73.72
64343;BME280;50675;53.530;-6.312;2023-03-22T11:04:21;98467.03;;;12.43;74.05
64343;BME280;50675;53.530;-6.312;2023-03-22T11:07:38;98464.03;;;12.45;73.77
64343;BME280;50675;53.530;-6.312;2023-03-22T11:10:32;98448.47;;;12.59;73.79
64343;BME280;50675;53.530;-6.312;2023-03-22T11:13:19;98479.53;;;12.61;73.79
64343;BME280;50675;53.530;-6.312;2023-03-22T11:16:07;98454.53;;;12.73;74.03
64343;BME280;50675;53.530;-6.312;2023-03-22T11:18:54;98451.38;;;12.88;74.03
64343;BME280;50675;53.530;-6.312;2023-03-22T11:21:41;98456.66;;;13.02;73.95
64343;BME280;50675;53.530;-6.312;2023-03-22T11:24:30;98465.13;;;13.18;74.29
64343;BME280;50675;53.530;-6.312;2023-03-22T11:27:22;98454.44;;;13.12;74.04
64343;BME280;50675;53.530;-6.312;2023-03-22T11:30:24;98446.59;;;12.94;73.96
64343;BME280;50675;53.530;-6.312;2023-03-22T11:33:19;98447.41;;;13.03;73.97
64343;BME280;50675;53.530;-6.312;2023-03-22T11:36:24;98435.81;;;13.20;73.94
64343;BME280;50675;53.530;-6.312;2023-03-22T11:39:10;98432.47;;;13.14;74.07
64343;BME280;50675;53.530;-6.312;2023-03-22T11:42:19;98406.63;;;13.25;74.09
64343;BME280;50675;53.530;-6.312;2023-03-22T11:45:06;98426.06;;;13.27;73.60
64343;BME280;50675;53.530;-6.312;2023-03-22T11:47:54;98414.28;;;13.14;73.55
64343;BME280;50675;53.530;-6.312;2023-03-22T11:50:41;98417.00;;;13.23;73.97
64343;BME280;50675;53.530;-6.312;2023-03-22T11:53:31;98398.16;;;13.27;73.87
64343;BME280;50675;53.530;-6.312;2023-03-22T11:56:20;98369.16;;;13.19;73.75
64343;BME280;50675;53.530;-6.312;2023-03-22T11:59:20;98400.09;;;13.35;73.93
64343;BME280;50675;53.530;-6.312;2023-03-22T12:05:11;98410.31;;;13.21;73.94
64343;BME280;50675;53.530;-6.312;2023-03-22T12:11:04;98402.78;;;13.26;73.86
64343;BME280;50675;53.530;-6.312;2023-03-22T12:14:12;98417.94;;;13.44;73.64
64343;BME280;50675;53.530;-6.312;2023-03-22T12:17:06;98411.38;;;13.45;73.74
64343;BME280;50675;53.530;-6.312;2023-03-22T12:23:20;98403.69;;;13.65;73.64
64343;BME280;50675;53.530;-6.312;2023-03-22T12:26:24;98406.25;;;13.61;73.72
64343;BME280;50675;53.530;-6.312;2023-03-22T12:29:15;98421.69;;;13.86;73.74
64343;BME280;50675;53.530;-6.312;2023-03-22T12:32:18;98395.16;;;13.92;73.54
64343;BME280;50675;53.530;-6.312;2023-03-22T12:35:14;98411.41;;;14.00;73.57
64343;BME280;50675;53.530;-6.312;2023-03-22T12:38:21;98396.56;;;13.98;73.59
64343;BME280;50675;53.530;-6.312;2023-03-22T12:41:14;98373.28;;;13.88;73.40
64343;BME280;50675;53.530;-6.312;2023-03-22T12:44:17;98388.38;;;14.07;73.39
64343;BME280;50675;53.530;-6.312;2023-03-22T12:47:30;98392.88;;;14.02;73.61
64343;BME280;50675;53.530;-6.312;2023-03-22T12:50:36;98392.41;;;14.00;73.53
64343;BME280;50675;53.530;-6.312;2023-03-22T13:05:26;98362.88;;;13.99;72.94
64343;BME280;50675;53.530;-6.312;2023-03-22T13:09:02;98350.59;;;14.01;72.79
64343;BME280;50675;53.530;-6.312;2023-03-22T13:12:27;98351.03;;;14.03;72.85
64343;BME280;50675;53.530;-6.312;2023-03-22T13:53:32;98319.94;;;14.01;71.48
64343;BME280;50675;53.530;-6.312;2023-03-22T14:29:42;98201.41;;;14.26;71.52
64343;BME280;50675;53.530;-6.312;2023-03-22T14:32:28;98205.13;;;14.00;71.31
64343;BME280;50675;53.530;-6.312;2023-03-22T14:35:22;98211.88;;;14.15;71.12
64343;BME280;50675;53.530;-6.312;2023-03-22T14:37:51;98206.72;;;14.01;71.29
64343;BME280;50675;53.530;-6.312;2023-03-22T14:40:33;98200.28;;;14.27;71.19
64343;BME280;50675;53.530;-6.312;2023-03-22T14:43:21;98197.84;;;14.34;71.05
64343;BME280;50675;53.530;-6.312;2023-03-22T14:45:49;98168.81;;;14.26;70.95
64343;BME280;50675;53.530;-6.312;2023-03-22T14:48:24;98180.22;;;14.19;71.04
64343;BME280;50675;53.530;-6.312;2023-03-22T14:50:53;98182.63;;;14.41;71.05
64343;BME280;50675;53.530;-6.312;2023-03-22T14:53:25;98160.69;;;14.47;70.94
64343;BME280;50675;53.530;-6.312;2023-03-22T14:55:52;98152.81;;;14.54;71.17
64343;BME280;50675;53.530;-6.312;2023-03-22T14:58:19;98149.09;;;14.58;71.04
64343;BME280;50675;53.530;-6.312;2023-03-22T15:00:45;98147.06;;;14.67;71.08
64343;BME280;50675;53.530;-6.312;2023-03-22T15:03:25;98147.28;;;14.62;71.17
64343;BME280;50675;53.530;-6.312;2023-03-22T15:05:53;98142.53;;;14.71;71.15
64343;BME280;50675;53.530;-6.312;2023-03-22T15:10:49;98140.84;;;14.67;71.06
64343;BME280;50675;53.530;-6.312;2023-03-22T15:13:16;98126.19;;;14.47;70.82
64343;BME280;50675;53.530;-6.312;2023-03-22T15:15:43;98121.34;;;14.65;70.93
64343;BME280;50675;53.530;-6.312;2023-03-22T15:18:16;98120.69;;;14.68;70.85
64343;BME280;50675;53.530;-6.312;2023-03-22T15:20:45;98121.47;;;14.68;70.79
64343;BME280;50675;53.530;-6.312;2023-03-22T15:25:51;98108.84;;;14.39;70.79
64343;BME280;50675;53.530;-6.312;2023-03-22T15:28:31;98094.91;;;14.41;70.38
64343;BME280;50675;53.530;-6.312;2023-03-22T15:30:58;98082.25;;;14.45;70.34
64343;BME280;50675;53.530;-6.312;2023-03-22T15:33:37;98080.81;;;14.48;70.38
64343;BME280;50675;53.530;-6.312;2023-03-22T15:36:04;98090.88;;;14.47;70.47
64343;BME280;50675;53.530;-6.312;2023-03-22T15:38:38;98090.97;;;14.51;70.31
64343;BME280;50675;53.530;-6.312;2023-03-22T15:44:02;98073.22;;;14.20;70.40
64343;BME280;50675;53.530;-6.312;2023-03-22T15:46:45;98062.94;;;14.26;70.28
64343;BME280;50675;53.530;-6.312;2023-03-22T15:49:33;98067.44;;;14.42;70.40
64343;BME280;50675;53.530;-6.312;2023-03-22T15:54:34;98054.66;;;14.43;70.43
64343;BME280;50675;53.530;-6.312;2023-03-22T15:59:50;98034.63;;;14.48;70.43
64343;BME280;50675;53.530;-6.312;2023-03-22T16:02:29;98028.41;;;14.47;70.50
64343;BME280;50675;53.530;-6.312;2023-03-22T16:04:56;98004.56;;;14.32;70.54
64343;BME280;50675;53.530;-6.312;2023-03-22T16:07:29;97995.03;;;14.26;70.43
64343;BME280;50675;53.530;-6.312;2023-03-22T16:09:55;98008.72;;;14.17;70.28
64343;BME280;50675;53.530;-6.312;2023-03-22T16:12:22;98010.00;;;14.32;70.20
64343;BME280;50675;53.530;-6.312;2023-03-22T16:14:49;97997.38;;;14.03;70.27
64343;BME280;50675;53.530;-6.312;2023-03-22T16:17:23;98003.47;;;14.00;70.09
64343;BME280;50675;53.530;-6.312;2023-03-22T16:19:50;98000.38;;;13.89;69.91
64343;BME280;50675;53.530;-6.312;2023-03-22T16:22:18;97975.69;;;13.70;69.86
64343;BME280;50675;53.530;-6.312;2023-03-22T16:24:45;97976.78;;;13.69;70.06
64343;BME280;50675;53.530;-6.312;2023-03-22T16:27:19;97982.59;;;13.47;69.95
64343;BME280;50675;53.530;-6.312;2023-03-22T16:29:45;97981.47;;;13.27;70.04
64343;BME280;50675;53.530;-6.312;2023-03-22T16:32:18;97965.25;;;13.19;69.67
64343;BME280;50675;53.530;-6.312;2023-03-22T16:34:50;97993.03;;;13.36;69.86
64343;BME280;50675;53.530;-6.312;2023-03-22T16:37:20;97993.16;;;13.19;69.73
64343;BME280;50675;53.530;-6.312;2023-03-22T16:39:47;97965.19;;;13.06;69.86
64343;BME280;50675;53.530;-6.312;2023-03-22T16:42:16;97983.56;;;13.22;69.51
64343;BME280;50675;53.530;-6.312;2023-03-22T16:44:44;97965.63;;;13.08;69.57
64343;BME280;50675;53.530;-6.312;2023-03-22T16:47:12;97957.50;;;13.08;69.75
64343;BME280;50675;53.530;-6.312;2023-03-22T16:49:38;97969.88;;;13.18;69.58
64343;BME280;50675;53.530;-6.312;2023-03-22T16:52:22;97969.75;;;13.14;69.60
64343;BME280;50675;53.530;-6.312;2023-03-22T16:54:49;97965.53;;;13.26;69.61
64343;BME280;50675;53.530;-6.312;2023-03-22T16:57:18;97967.97;;;13.19;69.61
64343;BME280;50675;53.530;-6.312;2023-03-22T16:59:44;97955.53;;;13.18;69.61
64343;BME280;50675;53.530;-6.312;2023-03-22T17:02:35;97956.28;;;13.27;69.84
64343;BME280;50675;53.530;-6.312;2023-03-22T17:05:03;97950.59;;;13.20;69.61
64343;BME280;50675;53.530;-6.312;2023-03-22T17:07:31;97938.44;;;13.26;69.53
64343;BME280;50675;53.530;-6.312;2023-03-22T17:09:57;97919.88;;;13.16;69.64
64343;BME280;50675;53.530;-6.312;2023-03-22T17:12:30;97932.22;;;13.25;69.75
64343;BME280;50675;53.530;-6.312;2023-03-22T17:14:57;97933.59;;;13.31;69.81
64343;BME280;50675;53.530;-6.312;2023-03-22T17:17:41;97900.69;;;13.21;69.81
64343;BME280;50675;53.530;-6.312;2023-03-22T17:20:07;97906.56;;;13.23;69.84
64343;BME280;50675;53.530;-6.312;2023-03-22T17:22:33;97900.94;;;13.28;69.92
64343;BME280;50675;53.530;-6.312;2023-03-22T17:24:58;97881.91;;;13.16;69.88
64343;BME280;50675;53.530;-6.312;2023-03-22T17:27:28;97885.53;;;13.20;70.10
64343;BME280;50675;53.530;-6.312;2023-03-22T17:29:53;97889.56;;;13.13;69.83
64343;BME280;50675;53.530;-6.312;2023-03-22T17:32:19;97870.53;;;13.01;69.80
64343;BME280;50675;53.530;-6.312;2023-03-22T17:41:31;97886.19;;;12.96;70.04
64343;BME280;50675;53.530;-6.312;2023-03-22T17:43:57;97879.19;;;12.95;69.96
64343;BME280;50675;53.530;-6.312;2023-03-22T17:46:23;97868.47;;;12.98;70.13
64343;BME280;50675;53.530;-6.312;2023-03-22T17:48:49;97859.81;;;12.84;69.99
64343;BME280;50675;53.530;-6.312;2023-03-22T17:51:15;97873.75;;;12.95;69.79
64343;BME280;50675;53.530;-6.312;2023-03-22T17:53:40;97854.41;;;12.84;69.95
64343;BME280;50675;53.530;-6.312;2023-03-22T17:56:06;97855.19;;;12.85;69.87
64343;BME280;50675;53.530;-6.312;2023-03-22T17:58:32;97846.47;;;12.79;69.82
64343;BME280;50675;53.530;-6.312;2023-03-22T18:00:58;97862.06;;;12.82;70.10
64343;BME280;50675;53.530;-6.312;2023-03-22T18:03:25;97853.94;;;12.82;69.98
64343;BME280;50675;53.530;-6.312;2023-03-22T18:05:50;97858.63;;;12.73;69.88
64343;BME280;50675;53.530;-6.312;2023-03-22T18:08:16;97842.44;;;12.64;70.08
64343;BME280;50675;53.530;-6.312;2023-03-22T18:10:43;97845.41;;;12.71;70.15
64343;BME280;50675;53.530;-6.312;2023-03-22T18:13:10;97830.09;;;12.76;69.90
64343;BME280;50675;53.530;-6.312;2023-03-22T18:15:36;97831.56;;;12.73;70.00
64343;BME280;50675;53.530;-6.312;2023-03-22T18:18:02;97818.41;;;12.63;69.95
64343;BME280;50675;53.530;-6.312;2023-03-22T18:20:29;97823.44;;;12.73;70.22
64343;BME280;50675;53.530;-6.312;2023-03-22T18:22:56;97806.31;;;12.60;70.10
64343;BME280;50675;53.530;-6.312;2023-03-22T18:25:22;97802.63;;;12.44;70.14
64343;BME280;50675;53.530;-6.312;2023-03-22T18:27:48;97809.22;;;12.55;69.92
64343;BME280;50675;53.530;-6.312;2023-03-22T18:30:16;97815.16;;;12.49;69.92
64343;BME280;50675;53.530;-6.312;2023-03-22T18:32:42;97807.09;;;12.40;70.01
64343;BME280;50675;53.530;-6.312;2023-03-22T18:35:10;97813.44;;;12.44;70.06
64343;BME280;50675;53.530;-6.312;2023-03-22T18:37:36;97817.34;;;12.35;70.20
64343;BME280;50675;53.530;-6.312;2023-03-22T18:40:05;97797.31;;;12.27;70.49
64343;BME280;50675;53.530;-6.312;2023-03-22T18:42:36;97796.13;;;12.16;70.19
64343;BME280;50675;53.530;-6.312;2023-03-22T18:45:10;97807.78;;;12.08;69.95
64343;BME280;50675;53.530;-6.312;2023-03-22T18:47:38;97804.66;;;11.97;70.23
64343;BME280;50675;53.530;-6.312;2023-03-22T18:50:08;97826.91;;;12.03;70.25
64343;BME280;50675;53.530;-6.312;2023-03-22T18:52:35;97805.03;;;11.87;70.49
64343;BME280;50675;53.530;-6.312;2023-03-22T18:55:02;97795.66;;;11.84;70.22
64343;BME280;50675;53.530;-6.312;2023-03-22T18:57:29;97794.72;;;11.80;70.39
64343;BME280;50675;53.530;-6.312;2023-03-22T18:59:55;97793.91;;;11.80;70.43
64343;BME280;50675;53.530;-6.312;2023-03-22T19:02:21;97809.69;;;11.78;70.46
64343;BME280;50675;53.530;-6.312;2023-03-22T19:04:47;97808.75;;;11.65;70.42
64343;BME280;50675;53.530;-6.312;2023-03-22T19:07:17;97832.47;;;11.51;70.40
64343;BME280;50675;53.530;-6.312;2023-03-22T19:09:43;97836.28;;;11.59;70.41
64343;BME280;50675;53.530;-6.312;2023-03-22T19:12:15;97818.50;;;11.40;70.44
64343;BME280;50675;53.530;-6.312;2023-03-22T19:14:41;97843.63;;;11.41;70.48
64343;BME280;50675;53.530;-6.312;2023-03-22T19:17:07;97848.09;;;11.37;70.67
64343;BME280;50675;53.530;-6.312;2023-03-22T19:19:32;97903.41;;;11.57;70.63
64343;BME280;50675;53.530;-6.312;2023-03-22T19:21:58;97917.91;;;11.35;70.63